Site contains unofficial IBTrACS data. Visit the IBTrACS Website to access archived data.

1921 NOT_NAMED (1921223N24129)


IBTrACS version v04r00. Visit IBTrACS website for data access.
Please direct all questions to the IBTrACS Q and A forum

Storm track - Intensity - Wind Radii - Intensity Data - Source Data - All data

Summary Information

Storm ID 1921223N24129
Start Aug 10 22Z
Landfall Aug 14 15Z
End Aug 14 22Z
ATCF IDs
Track status Best track data.

Storm track plot

Map of storm track

Intensity plots

No Intensity information for this storm


Radial wind information

No radial wind information for this storm


Position and Intensity Table

BASIN ISO_TIME_________ NATURE LAT LON
degrees north degrees east
WP 1921-08-10 22:00:00 NR 24.40 129.20
WP 1921-08-11 00:00:00 NR 24.56 129.21
WP 03:00:00 NR 24.79 129.23
WP 06:00:00 NR 25.02 129.23
WP 09:00:00 NR 25.23 129.21
WP 10:00:00 NR 25.30 129.20
WP 12:00:00 NR 25.43 129.17
WP 15:00:00 NR 25.61 129.10
WP 18:00:00 NR 25.79 128.99
WP 21:00:00 NR 25.95 128.85
WP 22:00:00 NR 26.00 128.80
WP 1921-08-12 00:00:00 NR 26.11 128.68
WP 03:00:00 NR 26.26 128.48
WP 06:00:00 NR 26.41 128.24
WP 09:00:00 NR 26.55 127.99
WP 10:00:00 NR 26.60 127.90
WP 12:00:00 NR 26.70 127.74
WP 15:00:00 NR 26.85 127.48
WP 18:00:00 NR 27.00 127.21
WP 21:00:00 NR 27.15 126.91
WP 22:00:00 NR 27.20 126.80
WP 1921-08-13 00:00:00 NR 27.30 126.58
WP 03:00:00 NR 27.46 126.21
WP 06:00:00 NR 27.61 125.83
WP 09:00:00 NR 27.75 125.43
WP 10:00:00 NR 27.80 125.30
WP 12:00:00 NR 27.89 125.04
WP 15:00:00 NR 28.03 124.64
WP 18:00:00 NR 28.15 124.24
WP 21:00:00 NR 28.27 123.83
WP 22:00:00 NR 28.30 123.70
WP 1921-08-14 00:00:00 NR 28.36 123.44
WP 03:00:00 NR 28.44 123.05
WP 06:00:00 NR 28.51 122.65
WP 09:00:00 NR 28.58 122.24
WP 10:00:00 NR 28.60 122.10
WP 12:00:00 NR 28.65 121.81
WP 15:00:00 NR 28.72 121.37
WP 18:00:00 NR 28.80 120.92
WP 21:00:00 NR 28.87 120.45
WP 22:00:00 NR 28.90 120.30

Source Information

Agency Information
USA
TOKYO
CMA
HKO
NEWDELHI
REUNION
BOM
NADI
WELLINGTON
DS824
TD9636 cons_worldwide_trop_cyclone_18710101-19891231-003:Line=6405
TD9635
NEUMANN
MLC

All available IBTrACS Data

SEASON BASIN SUBBASIN ISO_TIME_________ NATURE LAT LON DIST2LAND LANDFALL IFLAG USA SSHS TD9636 LAT TD9636 LON TD9636 STAGE STORM SPEED STORM DIR
Year degrees north degrees east km km 1 degrees north degrees east kts degrees
1921 WP MM 1921-08-10 22:00:00 NR 24.40 129.20 729 727 __________O___ -1 24.40 129.20 4 5 5
1921 WP MM 1921-08-11 00:00:00 NR 24.56 129.21 727 707 __________P___ -1 24.56 129.21 4 5 3
1921 WP MM 03:00:00 NR 24.79 129.23 707 685 __________P___ -1 24.79 129.23 4 5 0
1921 WP MM 06:00:00 NR 25.02 129.23 685 664 __________P___ -1 25.02 129.23 4 4 0
1921 WP MM 09:00:00 NR 25.23 129.21 664 653 __________P___ -1 25.23 129.21 4 4 0
1921 WP MM 10:00:00 NR 25.30 129.20 653 642 __________O___ -1 25.30 129.20 4 4 350
1921 WP MM 12:00:00 NR 25.43 129.17 642 622 __________P___ -1 25.43 129.17 4 4 344
1921 WP MM 15:00:00 NR 25.61 129.10 622 603 __________P___ -1 25.61 129.10 4 4 336
1921 WP MM 18:00:00 NR 25.79 128.99 603 595 __________P___ -1 25.79 128.99 4 4 327
1921 WP MM 21:00:00 NR 25.95 128.85 595 588 __________P___ -1 25.95 128.85 4 4 321
1921 WP MM 22:00:00 NR 26.00 128.80 588 580 __________O___ -1 26.00 128.80 4 4 316
1921 WP MM 1921-08-12 00:00:00 NR 26.11 128.68 580 566 __________P___ -1 26.11 128.68 4 5 312
1921 WP MM 03:00:00 NR 26.26 128.48 566 564 __________P___ -1 26.26 128.48 4 5 307
1921 WP MM 06:00:00 NR 26.41 128.24 568 556 __________P___ -1 26.41 128.24 4 5 304
1921 WP MM 09:00:00 NR 26.55 127.99 556 556 __________P___ -1 26.55 127.99 4 5 302
1921 WP MM 10:00:00 NR 26.60 127.90 560 553 __________O___ -1 26.60 127.90 4 5 304
1921 WP MM 12:00:00 NR 26.70 127.74 557 552 __________P___ -1 26.70 127.74 4 5 304
1921 WP MM 15:00:00 NR 26.85 127.48 556 546 __________P___ -1 26.85 127.48 4 6 302
1921 WP MM 18:00:00 NR 27.00 127.21 551 534 __________P___ -1 27.00 127.21 4 6 300
1921 WP MM 21:00:00 NR 27.15 126.91 534 520 __________P___ -1 27.15 126.91 4 6 299
1921 WP MM 22:00:00 NR 27.20 126.80 520 497 __________O___ -1 27.20 126.80 4 7 297
1921 WP MM 1921-08-13 00:00:00 NR 27.30 126.58 497 452 __________P___ -1 27.30 126.58 4 7 296
1921 WP MM 03:00:00 NR 27.46 126.21 452 411 __________P___ -1 27.46 126.21 4 7 295
1921 WP MM 06:00:00 NR 27.61 125.83 411 366 __________P___ -1 27.61 125.83 4 8 293
1921 WP MM 09:00:00 NR 27.75 125.43 366 357 __________P___ -1 27.75 125.43 4 8 292
1921 WP MM 10:00:00 NR 27.80 125.30 357 326 __________O___ -1 27.80 125.30 4 8 292
1921 WP MM 12:00:00 NR 27.89 125.04 326 286 __________P___ -1 27.89 125.04 4 8 291
1921 WP MM 15:00:00 NR 28.03 124.64 286 241 __________P___ -1 28.03 124.64 4 8 290
1921 WP MM 18:00:00 NR 28.15 124.24 241 202 __________P___ -1 28.15 124.24 4 7 288
1921 WP MM 21:00:00 NR 28.27 123.83 202 193 __________P___ -1 28.27 123.83 4 7 287
1921 WP MM 22:00:00 NR 28.30 123.70 193 162 __________O___ -1 28.30 123.70 4 7 285
1921 WP MM 1921-08-14 00:00:00 NR 28.36 123.44 162 131 __________P___ -1 28.36 123.44 4 7 284
1921 WP MM 03:00:00 NR 28.44 123.05 131 90 __________P___ -1 28.44 123.05 4 7 282
1921 WP MM 06:00:00 NR 28.51 122.65 90 49 __________P___ -1 28.51 122.65 4 7 281
1921 WP MM 09:00:00 NR 28.58 122.24 49 40 __________P___ -1 28.58 122.24 4 7 281
1921 WP MM 10:00:00 NR 28.60 122.10 40 14 __________O___ -1 28.60 122.10 4 8 281
1921 WP MM 12:00:00 NR 28.65 121.81 14 0 __________P___ -1 28.65 121.81 4 8 281
1921 WP MM 15:00:00 NR 28.72 121.37 0 0 __________P___ -1 28.72 121.37 4 8 281
1921 WP MM 18:00:00 NR 28.80 120.92 0 0 __________P___ -1 28.80 120.92 4 8 281
1921 WP MM 21:00:00 NR 28.87 120.45 0 0 __________P___ -1 28.87 120.45 4 8 281
1921 WP MM 22:00:00 NR 28.90 120.30 0 __________O___ -1 28.90 120.30 7 8 281